sensor_id;sensor_type;location;lat;lon;timestamp;temperature;humidity
40754;DHT22;26460;42.732;-84.532;2024-02-28T00:00:42;23.90;38.50
40754;DHT22;26460;42.732;-84.532;2024-02-28T00:03:09;23.90;38.50
40754;DHT22;26460;42.732;-84.532;2024-02-28T00:05:36;23.90;38.40
40754;DHT22;26460;42.732;-84.532;2024-02-28T00:08:02;23.90;38.40
40754;DHT22;26460;42.732;-84.532;2024-02-28T00:10:29;23.90;38.50
40754;DHT22;26460;42.732;-84.532;2024-02-28T00:12:55;23.90;38.70
40754;DHT22;26460;42.732;-84.532;2024-02-28T00:15:22;23.90;38.70
40754;DHT22;26460;42.732;-84.532;2024-02-28T00:17:52;23.90;38.70
40754;DHT22;26460;42.732;-84.532;2024-02-28T00:20:19;23.90;38.80
40754;DHT22;26460;42.732;-84.532;2024-02-28T00:22:46;23.90;38.70
40754;DHT22;26460;42.732;-84.532;2024-02-28T00:25:13;23.90;38.70
40754;DHT22;26460;42.732;-84.532;2024-02-28T00:27:40;23.90;38.70
40754;DHT22;26460;42.732;-84.532;2024-02-28T00:30:07;23.90;38.90
40754;DHT22;26460;42.732;-84.532;2024-02-28T00:32:33;24.00;39.00
40754;DHT22;26460;42.732;-84.532;2024-02-28T00:35:00;24.00;39.00
40754;DHT22;26460;42.732;-84.532;2024-02-28T00:37:26;23.90;38.70
40754;DHT22;26460;42.732;-84.532;2024-02-28T00:39:53;23.90;38.80
40754;DHT22;26460;42.732;-84.532;2024-02-28T00:42:19;23.90;38.80
40754;DHT22;26460;42.732;-84.532;2024-02-28T00:44:46;24.00;39.00
40754;DHT22;26460;42.732;-84.532;2024-02-28T00:47:13;24.00;39.00
40754;DHT22;26460;42.732;-84.532;2024-02-28T00:49:40;24.00;39.00
40754;DHT22;26460;42.732;-84.532;2024-02-28T00:52:06;23.90;39.20
40754;DHT22;26460;42.732;-84.532;2024-02-28T00:54:33;24.00;39.10
40754;DHT22;26460;42.732;-84.532;2024-02-28T00:56:59;24.00;38.90
40754;DHT22;26460;42.732;-84.532;2024-02-28T00:59:26;24.00;38.90
40754;DHT22;26460;42.732;-84.532;2024-02-28T01:01:52;24.00;38.90
40754;DHT22;26460;42.732;-84.532;2024-02-28T01:04:19;24.00;38.80
40754;DHT22;26460;42.732;-84.532;2024-02-28T01:06:46;24.00;38.70
40754;DHT22;26460;42.732;-84.532;2024-02-28T01:09:12;24.00;38.70
40754;DHT22;26460;42.732;-84.532;2024-02-28T01:11:39;24.00;38.90
40754;DHT22;26460;42.732;-84.532;2024-02-28T01:14:05;23.90;39.00
40754;DHT22;26460;42.732;-84.532;2024-02-28T01:16:32;24.00;38.80
40754;DHT22;26460;42.732;-84.532;2024-02-28T01:18:58;24.00;38.80
40754;DHT22;26460;42.732;-84.532;2024-02-28T01:21:25;24.00;38.80
40754;DHT22;26460;42.732;-84.532;2024-02-28T01:23:52;24.00;38.80
40754;DHT22;26460;42.732;-84.532;2024-02-28T01:26:18;24.00;39.00
40754;DHT22;26460;42.732;-84.532;2024-02-28T01:28:48;24.00;39.10
40754;DHT22;26460;42.732;-84.532;2024-02-28T01:31:17;24.00;39.00
40754;DHT22;26460;42.732;-84.532;2024-02-28T01:33:44;24.00;39.10
40754;DHT22;26460;42.732;-84.532;2024-02-28T01:36:11;24.00;39.00
40754;DHT22;26460;42.732;-84.532;2024-02-28T01:38:38;24.00;39.00
40754;DHT22;26460;42.732;-84.532;2024-02-28T01:41:05;24.00;39.00
40754;DHT22;26460;42.732;-84.532;2024-02-28T01:43:33;24.00;39.20
40754;DHT22;26460;42.732;-84.532;2024-02-28T01:46:02;24.00;39.00
40754;DHT22;26460;42.732;-84.532;2024-02-28T01:48:30;24.00;39.20
40754;DHT22;26460;42.732;-84.532;2024-02-28T01:50:57;24.00;39.20
40754;DHT22;26460;42.732;-84.532;2024-02-28T01:53:23;24.00;39.50
40754;DHT22;26460;42.732;-84.532;2024-02-28T01:55:50;24.00;39.50
40754;DHT22;26460;42.732;-84.532;2024-02-28T01:58:18;24.00;39.20
40754;DHT22;26460;42.732;-84.532;2024-02-28T02:00:46;24.00;39.10
40754;DHT22;26460;42.732;-84.532;2024-02-28T02:03:13;24.00;39.20
40754;DHT22;26460;42.732;-84.532;2024-02-28T02:05:41;24.00;39.50
40754;DHT22;26460;42.732;-84.532;2024-02-28T02:08:09;24.00;39.80
40754;DHT22;26460;42.732;-84.532;2024-02-28T02:10:36;24.00;39.60
40754;DHT22;26460;42.732;-84.532;2024-02-28T02:13:06;24.00;39.40
40754;DHT22;26460;42.732;-84.532;2024-02-28T02:15:32;24.00;39.40
40754;DHT22;26460;42.732;-84.532;2024-02-28T02:17:59;24.00;39.60
40754;DHT22;26460;42.732;-84.532;2024-02-28T02:20:26;24.00;39.10
40754;DHT22;26460;42.732;-84.532;2024-02-28T02:22:54;24.00;39.30
40754;DHT22;26460;42.732;-84.532;2024-02-28T02:25:21;24.00;39.30
40754;DHT22;26460;42.732;-84.532;2024-02-28T02:27:48;24.00;39.60
40754;DHT22;26460;42.732;-84.532;2024-02-28T02:30:14;24.00;39.60
40754;DHT22;26460;42.732;-84.532;2024-02-28T02:32:41;24.00;39.60
40754;DHT22;26460;42.732;-84.532;2024-02-28T02:35:08;24.00;39.50
40754;DHT22;26460;42.732;-84.532;2024-02-28T02:37:34;24.00;39.50
40754;DHT22;26460;42.732;-84.532;2024-02-28T02:40:01;24.00;39.50
40754;DHT22;26460;42.732;-84.532;2024-02-28T02:42:28;24.00;39.60
40754;DHT22;26460;42.732;-84.532;2024-02-28T02:44:54;24.00;39.70
40754;DHT22;26460;42.732;-84.532;2024-02-28T02:47:21;24.00;39.80
40754;DHT22;26460;42.732;-84.532;2024-02-28T02:49:48;24.00;39.60
40754;DHT22;26460;42.732;-84.532;2024-02-28T02:52:14;24.00;39.60
40754;DHT22;26460;42.732;-84.532;2024-02-28T02:54:41;24.00;39.50
40754;DHT22;26460;42.732;-84.532;2024-02-28T02:57:07;24.00;39.50
40754;DHT22;26460;42.732;-84.532;2024-02-28T02:59:34;24.00;39.40
40754;DHT22;26460;42.732;-84.532;2024-02-28T03:02:02;24.00;39.30
40754;DHT22;26460;42.732;-84.532;2024-02-28T03:04:30;24.00;39.30
40754;DHT22;26460;42.732;-84.532;2024-02-28T03:06:56;24.00;39.30
40754;DHT22;26460;42.732;-84.532;2024-02-28T03:09:23;24.00;39.20
40754;DHT22;26460;42.732;-84.532;2024-02-28T03:11:50;24.00;39.20
40754;DHT22;26460;42.732;-84.532;2024-02-28T03:14:17;24.00;39.20
40754;DHT22;26460;42.732;-84.532;2024-02-28T03:16:45;24.00;39.10
40754;DHT22;26460;42.732;-84.532;2024-02-28T03:19:11;24.00;39.10
40754;DHT22;26460;42.732;-84.532;2024-02-28T03:21:38;24.00;39.10
40754;DHT22;26460;42.732;-84.532;2024-02-28T03:24:05;24.00;39.00
40754;DHT22;26460;42.732;-84.532;2024-02-28T03:26:32;24.00;39.00
40754;DHT22;26460;42.732;-84.532;2024-02-28T03:28:59;24.00;39.00
40754;DHT22;26460;42.732;-84.532;2024-02-28T03:31:26;24.00;38.90
40754;DHT22;26460;42.732;-84.532;2024-02-28T03:33:52;24.00;38.90
40754;DHT22;26460;42.732;-84.532;2024-02-28T03:36:19;24.00;38.90
40754;DHT22;26460;42.732;-84.532;2024-02-28T03:38:46;24.00;38.70
40754;DHT22;26460;42.732;-84.532;2024-02-28T03:41:12;24.00;38.80
40754;DHT22;26460;42.732;-84.532;2024-02-28T03:43:39;24.00;38.80
40754;DHT22;26460;42.732;-84.532;2024-02-28T03:46:06;24.00;38.70
40754;DHT22;26460;42.732;-84.532;2024-02-28T03:48:32;24.00;38.80
40754;DHT22;26460;42.732;-84.532;2024-02-28T03:50:59;24.00;38.70
40754;DHT22;26460;42.732;-84.532;2024-02-28T03:53:25;24.00;38.70
40754;DHT22;26460;42.732;-84.532;2024-02-28T03:55:52;24.00;38.60
40754;DHT22;26460;42.732;-84.532;2024-02-28T03:58:19;24.00;38.70
40754;DHT22;26460;42.732;-84.532;2024-02-28T04:00:45;24.00;38.70
40754;DHT22;26460;42.732;-84.532;2024-02-28T04:03:12;24.00;38.70
40754;DHT22;26460;42.732;-84.532;2024-02-28T04:05:40;24.00;38.70
40754;DHT22;26460;42.732;-84.532;2024-02-28T04:08:07;24.00;38.60
40754;DHT22;26460;42.732;-84.532;2024-02-28T04:10:34;24.00;38.50
40754;DHT22;26460;42.732;-84.532;2024-02-28T04:13:00;24.00;38.50
40754;DHT22;26460;42.732;-84.532;2024-02-28T04:15:27;24.00;38.60
40754;DHT22;26460;42.732;-84.532;2024-02-28T04:17:54;24.00;38.60
40754;DHT22;26460;42.732;-84.532;2024-02-28T04:20:21;24.00;38.60
40754;DHT22;26460;42.732;-84.532;2024-02-28T04:22:47;24.00;38.60
40754;DHT22;26460;42.732;-84.532;2024-02-28T04:25:14;24.00;38.70
40754;DHT22;26460;42.732;-84.532;2024-02-28T04:27:40;24.00;38.70
40754;DHT22;26460;42.732;-84.532;2024-02-28T04:30:07;24.00;38.70
40754;DHT22;26460;42.732;-84.532;2024-02-28T04:32:34;24.00;38.70
40754;DHT22;26460;42.732;-84.532;2024-02-28T04:35:01;24.00;38.70
40754;DHT22;26460;42.732;-84.532;2024-02-28T04:37:29;24.00;38.90
40754;DHT22;26460;42.732;-84.532;2024-02-28T04:39:56;24.00;38.80
40754;DHT22;26460;42.732;-84.532;2024-02-28T04:42:22;24.00;38.80
40754;DHT22;26460;42.732;-84.532;2024-02-28T04:44:49;24.00;39.00
40754;DHT22;26460;42.732;-84.532;2024-02-28T04:47:15;24.00;38.70
40754;DHT22;26460;42.732;-84.532;2024-02-28T04:49:42;24.00;38.70
40754;DHT22;26460;42.732;-84.532;2024-02-28T04:52:08;24.00;39.00
40754;DHT22;26460;42.732;-84.532;2024-02-28T04:54:35;24.00;39.00
40754;DHT22;26460;42.732;-84.532;2024-02-28T04:57:01;24.00;39.30
40754;DHT22;26460;42.732;-84.532;2024-02-28T04:59:29;24.00;39.20
40754;DHT22;26460;42.732;-84.532;2024-02-28T05:01:56;24.00;39.00
40754;DHT22;26460;42.732;-84.532;2024-02-28T05:04:23;24.00;39.10
40754;DHT22;26460;42.732;-84.532;2024-02-28T05:06:49;24.00;39.00
40754;DHT22;26460;42.732;-84.532;2024-02-28T05:09:16;24.00;39.10
40754;DHT22;26460;42.732;-84.532;2024-02-28T05:11:44;24.00;39.10
40754;DHT22;26460;42.732;-84.532;2024-02-28T05:14:11;24.00;39.00
40754;DHT22;26460;42.732;-84.532;2024-02-28T05:16:37;24.00;39.00
40754;DHT22;26460;42.732;-84.532;2024-02-28T05:19:04;24.00;39.10
40754;DHT22;26460;42.732;-84.532;2024-02-28T05:21:31;24.00;39.00
40754;DHT22;26460;42.732;-84.532;2024-02-28T05:23:58;24.00;39.00
40754;DHT22;26460;42.732;-84.532;2024-02-28T05:26:24;23.90;39.00
40754;DHT22;26460;42.732;-84.532;2024-02-28T05:28:52;24.00;39.00
40754;DHT22;26460;42.732;-84.532;2024-02-28T05:31:26;24.00;39.00
40754;DHT22;26460;42.732;-84.532;2024-02-28T05:33:54;23.90;38.90
40754;DHT22;26460;42.732;-84.532;2024-02-28T05:36:22;23.90;38.90
40754;DHT22;26460;42.732;-84.532;2024-02-28T05:38:48;23.90;38.90
40754;DHT22;26460;42.732;-84.532;2024-02-28T05:41:18;23.90;38.90
40754;DHT22;26460;42.732;-84.532;2024-02-28T05:43:46;23.90;38.90
40754;DHT22;26460;42.732;-84.532;2024-02-28T05:46:13;23.90;38.80
40754;DHT22;26460;42.732;-84.532;2024-02-28T05:48:44;23.90;38.80
40754;DHT22;26460;42.732;-84.532;2024-02-28T05:51:11;23.90;39.40
40754;DHT22;26460;42.732;-84.532;2024-02-28T05:53:38;23.90;38.80
40754;DHT22;26460;42.732;-84.532;2024-02-28T05:56:05;23.90;38.70
40754;DHT22;26460;42.732;-84.532;2024-02-28T05:58:43;23.90;38.80
40754;DHT22;26460;42.732;-84.532;2024-02-28T06:01:11;23.90;38.70
40754;DHT22;26460;42.732;-84.532;2024-02-28T06:03:38;23.90;38.70
40754;DHT22;26460;42.732;-84.532;2024-02-28T06:06:05;23.90;38.70
40754;DHT22;26460;42.732;-84.532;2024-02-28T06:08:37;24.00;38.70
40754;DHT22;26460;42.732;-84.532;2024-02-28T06:11:04;23.90;38.70
40754;DHT22;26460;42.732;-84.532;2024-02-28T06:13:31;23.90;38.70
40754;DHT22;26460;42.732;-84.532;2024-02-28T06:15:58;23.90;38.70
40754;DHT22;26460;42.732;-84.532;2024-02-28T06:18:26;24.00;38.70
40754;DHT22;26460;42.732;-84.532;2024-02-28T06:20:54;24.00;38.70
40754;DHT22;26460;42.732;-84.532;2024-02-28T06:23:24;23.90;38.70
40754;DHT22;26460;42.732;-84.532;2024-02-28T06:25:51;23.90;38.70
40754;DHT22;26460;42.732;-84.532;2024-02-28T06:28:18;23.90;38.70
40754;DHT22;26460;42.732;-84.532;2024-02-28T06:30:45;23.90;38.70
40754;DHT22;26460;42.732;-84.532;2024-02-28T06:33:14;23.90;38.70
40754;DHT22;26460;42.732;-84.532;2024-02-28T06:35:41;23.90;38.70
40754;DHT22;26460;42.732;-84.532;2024-02-28T06:38:07;23.90;38.70
40754;DHT22;26460;42.732;-84.532;2024-02-28T06:40:34;23.90;38.70
40754;DHT22;26460;42.732;-84.532;2024-02-28T06:43:01;23.90;38.70
40754;DHT22;26460;42.732;-84.532;2024-02-28T06:45:27;23.90;38.70
40754;DHT22;26460;42.732;-84.532;2024-02-28T06:47:54;23.90;38.70
40754;DHT22;26460;42.732;-84.532;2024-02-28T06:50:20;23.90;38.70
40754;DHT22;26460;42.732;-84.532;2024-02-28T06:52:47;23.90;38.70
40754;DHT22;26460;42.732;-84.532;2024-02-28T06:55:14;23.90;38.70
40754;DHT22;26460;42.732;-84.532;2024-02-28T06:57:41;23.90;38.70
40754;DHT22;26460;42.732;-84.532;2024-02-28T07:00:10;23.90;38.70
40754;DHT22;26460;42.732;-84.532;2024-02-28T07:02:41;23.90;38.80
40754;DHT22;26460;42.732;-84.532;2024-02-28T07:05:07;23.90;38.80
40754;DHT22;26460;42.732;-84.532;2024-02-28T07:07:34;23.90;38.70
40754;DHT22;26460;42.732;-84.532;2024-02-28T07:10:03;23.80;38.60
40754;DHT22;26460;42.732;-84.532;2024-02-28T07:12:30;23.90;38.80
40754;DHT22;26460;42.732;-84.532;2024-02-28T07:14:57;23.80;38.70
40754;DHT22;26460;42.732;-84.532;2024-02-28T07:17:23;23.80;38.60
40754;DHT22;26460;42.732;-84.532;2024-02-28T07:19:50;23.90;38.70
40754;DHT22;26460;42.732;-84.532;2024-02-28T07:22:17;23.90;38.70
40754;DHT22;26460;42.732;-84.532;2024-02-28T07:24:44;23.90;38.70
40754;DHT22;26460;42.732;-84.532;2024-02-28T07:27:11;23.80;38.70
40754;DHT22;26460;42.732;-84.532;2024-02-28T07:29:37;23.80;38.70
40754;DHT22;26460;42.732;-84.532;2024-02-28T07:32:04;23.80;38.70
40754;DHT22;26460;42.732;-84.532;2024-02-28T07:34:31;23.80;38.70
40754;DHT22;26460;42.732;-84.532;2024-02-28T07:36:58;23.80;38.70
40754;DHT22;26460;42.732;-84.532;2024-02-28T07:39:24;23.80;38.70
40754;DHT22;26460;42.732;-84.532;2024-02-28T07:41:51;23.90;38.70
40754;DHT22;26460;42.732;-84.532;2024-02-28T07:44:18;23.80;38.60
40754;DHT22;26460;42.732;-84.532;2024-02-28T07:46:45;23.80;38.80
40754;DHT22;26460;42.732;-84.532;2024-02-28T07:49:13;23.80;38.70
40754;DHT22;26460;42.732;-84.532;2024-02-28T07:51:39;23.80;38.70
40754;DHT22;26460;42.732;-84.532;2024-02-28T07:54:06;23.80;38.70
40754;DHT22;26460;42.732;-84.532;2024-02-28T07:56:33;23.80;38.70
40754;DHT22;26460;42.732;-84.532;2024-02-28T07:58:59;23.80;38.70
40754;DHT22;26460;42.732;-84.532;2024-02-28T08:01:26;23.80;38.70
40754;DHT22;26460;42.732;-84.532;2024-02-28T08:03:52;23.80;38.70
40754;DHT22;26460;42.732;-84.532;2024-02-28T08:06:20;23.70;38.60
40754;DHT22;26460;42.732;-84.532;2024-02-28T08:08:47;23.80;38.70
40754;DHT22;26460;42.732;-84.532;2024-02-28T08:11:13;23.70;38.70
40754;DHT22;26460;42.732;-84.532;2024-02-28T08:13:40;23.70;38.50
40754;DHT22;26460;42.732;-84.532;2024-02-28T08:16:07;23.80;38.60
40754;DHT22;26460;42.732;-84.532;2024-02-28T08:18:35;23.80;38.70
40754;DHT22;26460;42.732;-84.532;2024-02-28T08:21:02;23.70;38.70
40754;DHT22;26460;42.732;-84.532;2024-02-28T08:23:32;23.70;38.70
40754;DHT22;26460;42.732;-84.532;2024-02-28T08:25:58;23.70;38.70
40754;DHT22;26460;42.732;-84.532;2024-02-28T08:28:25;23.70;38.70
40754;DHT22;26460;42.732;-84.532;2024-02-28T08:30:52;23.70;38.70
40754;DHT22;26460;42.732;-84.532;2024-02-28T08:33:18;23.70;38.60
40754;DHT22;26460;42.732;-84.532;2024-02-28T08:35:45;23.70;38.60
40754;DHT22;26460;42.732;-84.532;2024-02-28T08:38:11;23.70;38.60
40754;DHT22;26460;42.732;-84.532;2024-02-28T08:40:38;23.70;39.30
40754;DHT22;26460;42.732;-84.532;2024-02-28T08:43:05;23.70;38.80
40754;DHT22;26460;42.732;-84.532;2024-02-28T08:45:31;23.70;38.80
40754;DHT22;26460;42.732;-84.532;2024-02-28T08:47:58;23.70;38.80
40754;DHT22;26460;42.732;-84.532;2024-02-28T08:50:27;23.70;38.80
40754;DHT22;26460;42.732;-84.532;2024-02-28T08:52:55;23.70;38.90
40754;DHT22;26460;42.732;-84.532;2024-02-28T08:55:21;23.70;38.80
40754;DHT22;26460;42.732;-84.532;2024-02-28T08:57:49;23.70;38.80
40754;DHT22;26460;42.732;-84.532;2024-02-28T09:00:16;23.70;38.80
40754;DHT22;26460;42.732;-84.532;2024-02-28T09:02:43;23.70;38.80
40754;DHT22;26460;42.732;-84.532;2024-02-28T09:05:10;23.70;38.80
40754;DHT22;26460;42.732;-84.532;2024-02-28T09:07:37;23.60;38.90
40754;DHT22;26460;42.732;-84.532;2024-02-28T09:10:04;23.60;38.80
40754;DHT22;26460;42.732;-84.532;2024-02-28T09:12:32;23.70;38.80
40754;DHT22;26460;42.732;-84.532;2024-02-28T09:14:59;23.70;38.70
40754;DHT22;26460;42.732;-84.532;2024-02-28T09:17:26;23.70;38.80
40754;DHT22;26460;42.732;-84.532;2024-02-28T09:19:53;23.70;38.80
40754;DHT22;26460;42.732;-84.532;2024-02-28T09:22:20;23.70;38.90
40754;DHT22;26460;42.732;-84.532;2024-02-28T09:24:47;23.70;38.70
40754;DHT22;26460;42.732;-84.532;2024-02-28T09:27:15;23.70;38.70
40754;DHT22;26460;42.732;-84.532;2024-02-28T09:29:41;23.70;38.90
40754;DHT22;26460;42.732;-84.532;2024-02-28T09:32:08;23.70;38.80
40754;DHT22;26460;42.732;-84.532;2024-02-28T09:34:35;23.60;38.80
40754;DHT22;26460;42.732;-84.532;2024-02-28T09:37:01;23.60;38.80
40754;DHT22;26460;42.732;-84.532;2024-02-28T09:39:30;23.70;38.90
40754;DHT22;26460;42.732;-84.532;2024-02-28T09:41:57;23.70;38.80
40754;DHT22;26460;42.732;-84.532;2024-02-28T09:44:24;23.60;38.80
40754;DHT22;26460;42.732;-84.532;2024-02-28T09:46:51;23.60;38.80
40754;DHT22;26460;42.732;-84.532;2024-02-28T09:49:19;23.60;38.90
40754;DHT22;26460;42.732;-84.532;2024-02-28T09:51:49;23.70;39.00
40754;DHT22;26460;42.732;-84.532;2024-02-28T09:54:19;23.60;39.00
40754;DHT22;26460;42.732;-84.532;2024-02-28T09:56:47;23.60;39.20
40754;DHT22;26460;42.732;-84.532;2024-02-28T09:59:15;23.60;39.20
40754;DHT22;26460;42.732;-84.532;2024-02-28T10:01:49;23.60;39.30
40754;DHT22;26460;42.732;-84.532;2024-02-28T10:04:19;23.60;39.20
40754;DHT22;26460;42.732;-84.532;2024-02-28T10:06:46;23.60;39.20
40754;DHT22;26460;42.732;-84.532;2024-02-28T10:09:16;23.60;39.20
40754;DHT22;26460;42.732;-84.532;2024-02-28T10:11:43;23.60;39.20
40754;DHT22;26460;42.732;-84.532;2024-02-28T10:14:14;23.60;39.30
40754;DHT22;26460;42.732;-84.532;2024-02-28T10:16:42;23.60;39.30
40754;DHT22;26460;42.732;-84.532;2024-02-28T10:19:09;23.60;39.30
40754;DHT22;26460;42.732;-84.532;2024-02-28T10:21:36;23.50;39.30
40754;DHT22;26460;42.732;-84.532;2024-02-28T10:24:02;23.50;39.30
40754;DHT22;26460;42.732;-84.532;2024-02-28T10:26:29;23.50;39.40
40754;DHT22;26460;42.732;-84.532;2024-02-28T10:28:58;23.50;39.50
40754;DHT22;26460;42.732;-84.532;2024-02-28T10:31:25;23.50;39.40
40754;DHT22;26460;42.732;-84.532;2024-02-28T10:33:52;23.50;39.50
40754;DHT22;26460;42.732;-84.532;2024-02-28T10:36:18;23.50;39.50
40754;DHT22;26460;42.732;-84.532;2024-02-28T10:38:45;23.50;39.50
40754;DHT22;26460;42.732;-84.532;2024-02-28T10:41:14;23.50;39.50
40754;DHT22;26460;42.732;-84.532;2024-02-28T10:43:42;23.50;39.40
40754;DHT22;26460;42.732;-84.532;2024-02-28T10:46:10;23.50;39.50
40754;DHT22;26460;42.732;-84.532;2024-02-28T10:48:37;23.50;39.50
40754;DHT22;26460;42.732;-84.532;2024-02-28T10:51:04;23.50;39.50
40754;DHT22;26460;42.732;-84.532;2024-02-28T10:53:41;23.50;39.50
40754;DHT22;26460;42.732;-84.532;2024-02-28T10:56:11;23.50;39.50
40754;DHT22;26460;42.732;-84.532;2024-02-28T10:58:54;23.50;39.50
40754;DHT22;26460;42.732;-84.532;2024-02-28T11:01:21;23.50;39.50
40754;DHT22;26460;42.732;-84.532;2024-02-28T11:03:50;23.50;39.50
40754;DHT22;26460;42.732;-84.532;2024-02-28T11:06:20;23.50;39.50
40754;DHT22;26460;42.732;-84.532;2024-02-28T11:08:48;23.50;39.60
40754;DHT22;26460;42.732;-84.532;2024-02-28T11:11:15;23.40;39.50
40754;DHT22;26460;42.732;-84.532;2024-02-28T11:13:57;23.50;39.50
40754;DHT22;26460;42.732;-84.532;2024-02-28T11:16:31;23.50;39.50
40754;DHT22;26460;42.732;-84.532;2024-02-28T11:18:58;23.40;39.50
40754;DHT22;26460;42.732;-84.532;2024-02-28T11:21:26;23.40;39.50
40754;DHT22;26460;42.732;-84.532;2024-02-28T11:24:02;23.40;39.60
40754;DHT22;26460;42.732;-84.532;2024-02-28T11:26:29;23.40;39.50
40754;DHT22;26460;42.732;-84.532;2024-02-28T11:28:56;23.40;39.50
40754;DHT22;26460;42.732;-84.532;2024-02-28T11:31:23;23.40;39.50
40754;DHT22;26460;42.732;-84.532;2024-02-28T11:33:49;23.40;39.50
40754;DHT22;26460;42.732;-84.532;2024-02-28T11:36:16;23.40;39.50
40754;DHT22;26460;42.732;-84.532;2024-02-28T11:38:43;23.40;39.40
40754;DHT22;26460;42.732;-84.532;2024-02-28T11:41:10;23.40;39.50
40754;DHT22;26460;42.732;-84.532;2024-02-28T11:43:37;23.30;39.40
40754;DHT22;26460;42.732;-84.532;2024-02-28T11:46:09;23.30;39.40
40754;DHT22;26460;42.732;-84.532;2024-02-28T11:48:37;23.30;39.40
40754;DHT22;26460;42.732;-84.532;2024-02-28T11:51:04;23.30;39.30
40754;DHT22;26460;42.732;-84.532;2024-02-28T11:53:30;23.30;39.30
40754;DHT22;26460;42.732;-84.532;2024-02-28T11:55:57;23.30;39.20
40754;DHT22;26460;42.732;-84.532;2024-02-28T11:58:24;23.30;39.10
40754;DHT22;26460;42.732;-84.532;2024-02-28T12:00:51;23.20;39.00
40754;DHT22;26460;42.732;-84.532;2024-02-28T12:03:22;23.20;39.00
40754;DHT22;26460;42.732;-84.532;2024-02-28T12:05:50;23.20;38.90
40754;DHT22;26460;42.732;-84.532;2024-02-28T12:08:20;23.20;38.80
40754;DHT22;26460;42.732;-84.532;2024-02-28T12:10:47;23.20;38.70
40754;DHT22;26460;42.732;-84.532;2024-02-28T12:13:18;23.20;39.20
40754;DHT22;26460;42.732;-84.532;2024-02-28T12:15:45;23.20;38.60
40754;DHT22;26460;42.732;-84.532;2024-02-28T12:18:12;23.10;38.40
40754;DHT22;26460;42.732;-84.532;2024-02-28T12:20:39;23.10;38.40
40754;DHT22;26460;42.732;-84.532;2024-02-28T12:23:06;23.10;38.40
40754;DHT22;26460;42.732;-84.532;2024-02-28T12:25:34;23.10;38.30
40754;DHT22;26460;42.732;-84.532;2024-02-28T12:28:04;23.10;38.20
40754;DHT22;26460;42.732;-84.532;2024-02-28T12:30:40;23.10;38.10
40754;DHT22;26460;42.732;-84.532;2024-02-28T12:33:08;23.10;38.00
40754;DHT22;26460;42.732;-84.532;2024-02-28T12:35:35;23.10;37.80
40754;DHT22;26460;42.732;-84.532;2024-02-28T12:38:01;23.00;37.90
40754;DHT22;26460;42.732;-84.532;2024-02-28T12:40:28;23.00;37.60
40754;DHT22;26460;42.732;-84.532;2024-02-28T12:42:54;23.00;37.70
40754;DHT22;26460;42.732;-84.532;2024-02-28T12:45:23;23.00;37.70
40754;DHT22;26460;42.732;-84.532;2024-02-28T12:47:50;23.00;37.60
40754;DHT22;26460;42.732;-84.532;2024-02-28T12:50:16;22.90;38.20
40754;DHT22;26460;42.732;-84.532;2024-02-28T12:52:43;22.90;37.50
40754;DHT22;26460;42.732;-84.532;2024-02-28T12:55:10;22.90;37.50
40754;DHT22;26460;42.732;-84.532;2024-02-28T12:57:37;22.90;37.40
40754;DHT22;26460;42.732;-84.532;2024-02-28T13:00:04;22.90;37.40
40754;DHT22;26460;42.732;-84.532;2024-02-28T13:02:31;22.90;37.30
40754;DHT22;26460;42.732;-84.532;2024-02-28T13:04:57;22.80;37.20
40754;DHT22;26460;42.732;-84.532;2024-02-28T13:07:25;22.80;37.10
40754;DHT22;26460;42.732;-84.532;2024-02-28T13:09:51;22.80;37.00
40754;DHT22;26460;42.732;-84.532;2024-02-28T13:12:18;22.80;36.70
40754;DHT22;26460;42.732;-84.532;2024-02-28T13:14:46;22.80;36.10
40754;DHT22;26460;42.732;-84.532;2024-02-28T13:17:13;22.90;36.60
40754;DHT22;26460;42.732;-84.532;2024-02-28T13:19:39;22.80;36.50
40754;DHT22;26460;42.732;-84.532;2024-02-28T13:22:06;22.80;36.30
40754;DHT22;26460;42.732;-84.532;2024-02-28T13:24:32;22.80;36.30
40754;DHT22;26460;42.732;-84.532;2024-02-28T13:27:01;22.70;36.10
40754;DHT22;26460;42.732;-84.532;2024-02-28T13:29:28;22.70;36.10
40754;DHT22;26460;42.732;-84.532;2024-02-28T13:31:57;22.70;36.10
40754;DHT22;26460;42.732;-84.532;2024-02-28T13:34:24;22.70;35.90
40754;DHT22;26460;42.732;-84.532;2024-02-28T13:36:51;22.60;35.70
40754;DHT22;26460;42.732;-84.532;2024-02-28T13:39:17;22.60;35.80
40754;DHT22;26460;42.732;-84.532;2024-02-28T13:41:44;22.60;35.70
40754;DHT22;26460;42.732;-84.532;2024-02-28T13:44:11;22.50;35.50
40754;DHT22;26460;42.732;-84.532;2024-02-28T13:46:37;22.50;35.60
40754;DHT22;26460;42.732;-84.532;2024-02-28T13:49:07;22.50;35.40
40754;DHT22;26460;42.732;-84.532;2024-02-28T13:51:34;22.50;35.30
40754;DHT22;26460;42.732;-84.532;2024-02-28T13:54:00;22.40;35.20
40754;DHT22;26460;42.732;-84.532;2024-02-28T13:56:27;22.40;35.10
40754;DHT22;26460;42.732;-84.532;2024-02-28T13:58:54;22.40;35.10
40754;DHT22;26460;42.732;-84.532;2024-02-28T14:01:20;22.40;35.00
40754;DHT22;26460;42.732;-84.532;2024-02-28T14:03:47;22.40;34.50
40754;DHT22;26460;42.732;-84.532;2024-02-28T14:06:14;22.40;34.70
40754;DHT22;26460;42.732;-84.532;2024-02-28T14:08:40;22.40;35.20
40754;DHT22;26460;42.732;-84.532;2024-02-28T14:11:07;22.40;34.70
40754;DHT22;26460;42.732;-84.532;2024-02-28T14:13:34;22.30;34.50
40754;DHT22;26460;42.732;-84.532;2024-02-28T14:16:00;22.30;34.50
40754;DHT22;26460;42.732;-84.532;2024-02-28T14:18:28;22.30;34.40
40754;DHT22;26460;42.732;-84.532;2024-02-28T14:20:54;22.30;34.20
40754;DHT22;26460;42.732;-84.532;2024-02-28T14:23:21;22.20;34.30
40754;DHT22;26460;42.732;-84.532;2024-02-28T14:25:48;22.20;34.20
40754;DHT22;26460;42.732;-84.532;2024-02-28T14:28:14;22.20;34.20
40754;DHT22;26460;42.732;-84.532;2024-02-28T14:30:41;22.20;34.20
40754;DHT22;26460;42.732;-84.532;2024-02-28T14:33:08;22.10;34.00
40754;DHT22;26460;42.732;-84.532;2024-02-28T14:35:35;22.10;34.00
40754;DHT22;26460;42.732;-84.532;2024-02-28T14:38:05;22.10;34.00
40754;DHT22;26460;42.732;-84.532;2024-02-28T14:40:32;22.10;34.00
40754;DHT22;26460;42.732;-84.532;2024-02-28T14:42:59;22.00;34.00
40754;DHT22;26460;42.732;-84.532;2024-02-28T14:45:26;22.00;33.80
40754;DHT22;26460;42.732;-84.532;2024-02-28T14:47:54;22.00;33.90
40754;DHT22;26460;42.732;-84.532;2024-02-28T14:50:21;22.00;33.80
40754;DHT22;26460;42.732;-84.532;2024-02-28T14:52:48;22.00;33.70
40754;DHT22;26460;42.732;-84.532;2024-02-28T14:55:14;22.00;33.70
40754;DHT22;26460;42.732;-84.532;2024-02-28T14:57:41;21.90;33.60
40754;DHT22;26460;42.732;-84.532;2024-02-28T15:00:09;21.90;33.60
40754;DHT22;26460;42.732;-84.532;2024-02-28T15:02:40;21.90;33.40